createdAt,value
2022-10-18T00:00:58.576Z,35.83
2022-10-18T00:03:26.990Z,50.92
2022-10-18T00:05:55.005Z,38.22
2022-10-18T00:08:22.924Z,32.85
2022-10-18T00:10:51.094Z,24.67
2022-10-18T00:13:20.707Z,23.33
2022-10-18T00:15:52.660Z,28.73
2022-10-18T00:18:20.920Z,41.35
2022-10-18T00:20:58.688Z,21.75
2022-10-18T00:23:27.706Z,19.88
2022-10-18T00:26:03.990Z,22.85
2022-10-18T00:28:34.217Z,20.15
2022-10-18T00:31:12.014Z,17.55
2022-10-18T00:33:40.347Z,20.10
2022-10-18T00:36:08.484Z,17.02
2022-10-18T00:38:36.598Z,26.00
2022-10-18T00:41:05.332Z,25.52
2022-10-18T00:43:51.384Z,39.10
2022-10-18T00:46:19.426Z,45.45
2022-10-18T00:48:47.600Z,17.55
2022-10-18T00:51:17.842Z,26.83
2022-10-18T00:53:46.100Z,20.52
2022-10-18T00:56:15.091Z,34.97
2022-10-18T00:58:45.422Z,32.63
2022-10-18T01:01:13.413Z,22.55
2022-10-18T01:03:42.133Z,21.02
2022-10-18T01:06:10.637Z,17.45
2022-10-18T01:08:55.641Z,26.02
2022-10-18T01:11:38.763Z,18.65
2022-10-18T01:14:19.607Z,32.88
2022-10-18T01:16:55.791Z,21.80
2022-10-18T01:19:54.350Z,38.55
2022-10-18T01:22:27.197Z,17.52
2022-10-18T01:25:15.617Z,25.90
2022-10-18T01:27:50.450Z,43.63
2022-10-18T01:30:40.433Z,43.60
2022-10-18T01:33:23.344Z,30.77
2022-10-18T01:35:55.922Z,37.00
2022-10-18T01:38:26.363Z,32.72
2022-10-18T01:40:56.042Z,30.50
2022-10-18T01:43:25.452Z,33.67
2022-10-18T01:45:56.655Z,26.40
2022-10-18T01:48:24.974Z,42.40
2022-10-18T01:50:53.527Z,25.65
2022-10-18T01:53:26.460Z,15.32
2022-10-18T01:56:15.647Z,39.90
2022-10-18T01:58:49.608Z,17.50
2022-10-18T02:01:27.231Z,24.13
2022-10-18T02:04:01.501Z,19.77
2022-10-18T02:06:32.800Z,22.00
2022-10-18T02:09:08.802Z,16.02
2022-10-18T02:11:38.939Z,30.42
2022-10-18T02:14:10.309Z,9.07
2022-10-18T02:16:43.166Z,34.28
2022-10-18T02:19:15.562Z,9.63
2022-10-18T02:21:45.641Z,36.78
2022-10-18T02:24:15.707Z,24.15
2022-10-18T02:26:44.110Z,16.77
2022-10-18T02:29:12.648Z,24.58
2022-10-18T02:31:45.794Z,31.20
2022-10-18T02:34:21.351Z,7.40
2022-10-18T02:36:53.282Z,22.15
2022-10-18T02:39:24.367Z,9.00
2022-10-18T02:41:52.254Z,6.40
2022-10-18T02:44:20.151Z,14.43
2022-10-18T02:46:49.479Z,10.95
2022-10-18T02:49:17.421Z,18.80
2022-10-18T02:51:45.439Z,14.48
2022-10-18T02:54:13.254Z,10.48
2022-10-18T02:56:41.408Z,19.05
2022-10-18T02:59:09.273Z,20.08
2022-10-18T03:01:37.613Z,15.38
2022-10-18T03:04:07.220Z,28.58
2022-10-18T03:06:35.742Z,10.18
2022-10-18T03:09:04.156Z,14.30
2022-10-18T03:11:32.549Z,14.50
2022-10-18T03:14:00.370Z,17.42
2022-10-18T03:16:28.453Z,36.67
2022-10-18T03:18:56.423Z,21.70
2022-10-18T03:21:25.741Z,31.75
2022-10-18T03:23:53.739Z,27.15
2022-10-18T03:26:21.528Z,29.13
2022-10-18T03:28:49.433Z,16.92
2022-10-18T03:31:17.818Z,20.98
2022-10-18T03:33:45.715Z,31.45
2022-10-18T03:36:13.775Z,50.60
2022-10-18T03:38:43.237Z,35.78
2022-10-18T03:41:11.080Z,27.27
2022-10-18T03:43:39.190Z,13.50
2022-10-18T03:46:07.765Z,22.15
2022-10-18T03:48:35.595Z,28.05
2022-10-18T03:51:03.505Z,12.45
2022-10-18T03:53:31.681Z,14.65
2022-10-18T03:56:00.876Z,7.30
2022-10-18T03:58:28.766Z,15.02
2022-10-18T04:00:56.938Z,4.82
2022-10-18T04:03:24.898Z,4.55
2022-10-18T04:05:53.153Z,4.57
2022-10-18T04:08:21.030Z,6.80
2022-10-18T04:10:50.155Z,17.92
2022-10-18T04:13:25.398Z,6.95
2022-10-18T04:15:53.367Z,22.13
2022-10-18T04:18:21.162Z,9.05
2022-10-18T04:20:49.005Z,12.70
2022-10-18T04:23:17.243Z,9.13
2022-10-18T04:25:45.412Z,6.07
2022-10-18T04:28:13.569Z,38.53
2022-10-18T04:30:42.800Z,17.13
2022-10-18T04:33:11.045Z,6.55
2022-10-18T04:35:39.099Z,23.48
2022-10-18T04:38:06.906Z,14.23
2022-10-18T04:40:34.845Z,30.85
2022-10-18T04:43:02.697Z,13.27
2022-10-18T04:45:30.811Z,43.15
2022-10-18T04:47:59.956Z,38.28
2022-10-18T04:50:28.159Z,25.60
2022-10-18T04:52:56.261Z,39.40
2022-10-18T04:55:24.354Z,42.97
2022-10-18T04:57:52.501Z,15.27
2022-10-18T05:00:22.888Z,31.73
2022-10-18T05:02:50.771Z,25.88
2022-10-18T05:05:20.088Z,15.95
2022-10-18T05:07:47.873Z,26.23
2022-10-18T05:10:15.816Z,11.85
2022-10-18T05:12:43.877Z,7.65
2022-10-18T05:15:12.023Z,28.75
2022-10-18T05:17:39.840Z,21.88
2022-10-18T05:20:08.368Z,29.48
2022-10-18T05:22:37.519Z,3.83
2022-10-18T05:25:05.891Z,11.80
2022-10-18T05:27:34.028Z,14.95
2022-10-18T05:30:05.354Z,14.40
2022-10-18T05:32:33.999Z,9.30
2022-10-18T05:35:02.455Z,22.17
2022-10-18T05:37:30.276Z,13.93
2022-10-18T05:39:59.668Z,18.87
2022-10-18T05:42:27.837Z,11.87
2022-10-18T05:44:55.994Z,16.17
2022-10-18T05:47:24.198Z,16.02
2022-10-18T05:49:52.363Z,24.00
2022-10-18T05:52:20.450Z,41.05
2022-10-18T05:54:48.591Z,13.13
2022-10-18T05:57:18.177Z,27.85
2022-10-18T05:59:46.413Z,30.95
2022-10-18T06:02:14.796Z,47.53
2022-10-18T06:04:43.101Z,33.00
2022-10-18T06:07:11.649Z,43.07
2022-10-18T06:09:39.947Z,19.08
2022-10-18T06:12:09.115Z,20.60
2022-10-18T06:14:38.736Z,22.40
2022-10-18T06:17:07.293Z,29.83
2022-10-18T06:19:35.129Z,32.80
2022-10-18T06:22:03.414Z,37.92
2022-10-18T06:24:31.653Z,38.67
2022-10-18T06:26:59.538Z,17.77
2022-10-18T06:29:27.615Z,11.97
2022-10-18T06:31:56.868Z,16.52
2022-10-18T06:34:25.002Z,18.80
2022-10-18T06:36:56.398Z,32.03
2022-10-18T06:39:26.170Z,20.17
2022-10-18T06:41:54.488Z,40.57
2022-10-18T06:44:22.685Z,25.38
2022-10-18T06:46:51.705Z,37.42
2022-10-18T06:49:23.171Z,33.63
2022-10-18T06:51:50.980Z,26.37
2022-10-18T06:54:20.534Z,33.90
2022-10-18T06:56:48.779Z,63.17
2022-10-18T06:59:18.088Z,40.50
2022-10-18T07:01:46.005Z,24.43
2022-10-18T07:04:14.233Z,36.17
2022-10-18T07:06:43.446Z,36.17
2022-10-18T07:09:11.791Z,9.80
2022-10-18T07:11:40.042Z,6.77
2022-10-18T07:14:08.799Z,14.88
2022-10-18T07:16:37.786Z,3.60
2022-10-18T07:19:05.999Z,2.67
2022-10-18T07:21:33.964Z,3.10
2022-10-18T07:24:03.252Z,8.90
2022-10-18T07:26:33.007Z,4.90
2022-10-18T07:29:03.221Z,3.27
2022-10-18T07:31:31.312Z,3.20
2022-10-18T07:33:59.583Z,4.20
2022-10-18T07:36:28.020Z,3.05
2022-10-18T07:38:56.062Z,3.15
2022-10-18T07:41:25.500Z,3.83
2022-10-18T07:43:54.364Z,6.60
2022-10-18T07:46:23.266Z,3.63
2022-10-18T07:48:51.851Z,3.90
2022-10-18T07:51:20.977Z,4.47
2022-10-18T07:53:49.458Z,4.88
2022-10-18T07:56:20.754Z,4.10
2022-10-18T07:58:52.209Z,4.47
2022-10-18T08:01:23.783Z,5.60
2022-10-18T08:03:51.963Z,4.60
2022-10-18T08:06:21.274Z,4.38
2022-10-18T08:08:49.527Z,4.28
2022-10-18T08:11:19.497Z,5.35
2022-10-18T08:13:49.499Z,7.10
2022-10-18T08:16:19.881Z,5.47
2022-10-18T08:18:48.557Z,5.22
2022-10-18T08:21:17.534Z,6.25
2022-10-18T08:23:45.967Z,5.55
2022-10-18T08:26:16.077Z,6.85
2022-10-18T08:28:53.639Z,5.70
2022-10-18T08:31:27.888Z,4.60
2022-10-18T08:33:57.168Z,5.28
2022-10-18T08:36:25.345Z,7.03
2022-10-18T08:38:53.401Z,7.00
2022-10-18T08:41:49.495Z,4.97
2022-10-18T08:44:21.324Z,5.07
2022-10-18T08:46:53.219Z,7.03
2022-10-18T08:49:28.610Z,8.02
2022-10-18T08:51:57.998Z,5.82
2022-10-18T08:54:32.542Z,5.38
2022-10-18T08:57:02.741Z,7.38
2022-10-18T08:59:35.959Z,6.00
2022-10-18T09:02:18.961Z,7.18
2022-10-18T09:04:52.431Z,8.07
2022-10-18T09:07:46.690Z,6.60
2022-10-18T09:10:24.286Z,6.25
2022-10-18T09:13:08.171Z,6.32
2022-10-18T09:15:43.635Z,6.35
2022-10-18T09:18:35.293Z,6.97
2022-10-18T09:21:16.536Z,6.88
2022-10-18T09:23:49.430Z,4.57
2022-10-18T09:26:19.959Z,7.38
2022-10-18T09:29:03.828Z,5.40
2022-10-18T09:31:45.867Z,9.68
2022-10-18T09:34:26.309Z,8.30
2022-10-18T09:36:57.886Z,12.80
2022-10-18T09:39:30.776Z,6.97
2022-10-18T09:42:03.470Z,8.05
2022-10-18T09:44:36.913Z,8.77
2022-10-18T09:47:16.519Z,6.25
2022-10-18T09:49:48.532Z,9.15
2022-10-18T09:52:20.690Z,5.28
2022-10-18T09:54:55.219Z,7.55
2022-10-18T09:57:27.612Z,7.85
2022-10-18T09:59:55.553Z,6.30
2022-10-18T10:02:24.897Z,4.70
2022-10-18T10:04:55.625Z,6.35
2022-10-18T10:07:29.781Z,6.03
2022-10-18T10:10:07.440Z,4.60
2022-10-18T10:12:36.952Z,7.32
2022-10-18T10:15:17.964Z,3.85
2022-10-18T10:17:56.239Z,5.82
2022-10-18T10:20:29.872Z,5.82
2022-10-18T10:23:08.313Z,5.82
2022-10-18T10:25:38.912Z,5.57
2022-10-18T10:28:13.189Z,3.83
2022-10-18T10:30:41.347Z,6.85
2022-10-18T10:33:32.762Z,3.70
2022-10-18T10:36:03.647Z,3.90
2022-10-18T10:38:32.831Z,6.15
2022-10-18T10:41:00.864Z,4.15
2022-10-18T10:43:39.665Z,4.57
2022-10-18T10:46:10.766Z,8.13
2022-10-18T10:49:03.288Z,6.43
2022-10-18T10:51:43.501Z,4.22
2022-10-18T10:54:18.941Z,4.35
2022-10-18T10:56:57.638Z,3.70
2022-10-18T10:59:28.108Z,5.55
2022-10-18T11:02:20.665Z,5.22
2022-10-18T11:04:50.235Z,6.38
2022-10-18T11:07:23.960Z,5.43
2022-10-18T11:09:59.248Z,4.68
2022-10-18T11:12:34.379Z,6.05
2022-10-18T11:15:21.897Z,4.18
2022-10-18T11:18:01.913Z,2.63
2022-10-18T11:20:33.921Z,3.97
2022-10-18T11:23:07.661Z,5.22
2022-10-18T11:26:03.873Z,4.28
2022-10-18T11:28:45.396Z,5.95
2022-10-18T11:31:22.729Z,4.43
2022-10-18T11:34:09.938Z,6.22
2022-10-18T11:36:56.332Z,3.42
2022-10-18T11:39:43.700Z,5.75
2022-10-18T11:42:20.612Z,6.80
2022-10-18T11:44:58.251Z,6.53
2022-10-18T11:47:34.578Z,7.32
2022-10-18T11:50:12.992Z,4.60
2022-10-18T11:52:50.109Z,13.45
2022-10-18T11:55:35.321Z,4.60
2022-10-18T11:58:17.950Z,2.83
2022-10-18T12:00:51.664Z,3.67
2022-10-18T12:03:39.438Z,3.63
2022-10-18T12:06:13.116Z,7.00
2022-10-18T12:08:45.621Z,5.00
2022-10-18T12:11:19.752Z,6.00
2022-10-18T12:13:52.190Z,4.43
2022-10-18T12:16:45.517Z,3.70
2022-10-18T12:19:22.024Z,5.63
2022-10-18T12:21:53.704Z,3.17
2022-10-18T12:24:25.724Z,4.85
2022-10-18T12:27:00.037Z,3.17
2022-10-18T12:29:32.856Z,4.05
2022-10-18T12:32:03.971Z,5.80
2022-10-18T12:34:38.170Z,3.92
2022-10-18T12:37:27.913Z,3.97
2022-10-18T12:40:18.557Z,3.55
2022-10-18T12:42:51.588Z,6.38
2022-10-18T12:45:28.339Z,3.88
2022-10-18T12:48:00.269Z,4.70
2022-10-18T12:50:34.703Z,1.65
2022-10-18T12:53:08.641Z,1.90
2022-10-18T12:55:38.497Z,3.15
2022-10-18T12:58:30.734Z,3.88
2022-10-18T13:01:04.378Z,3.92
2022-10-18T13:03:58.679Z,4.95
2022-10-18T13:06:46.860Z,2.35
2022-10-18T13:09:22.115Z,2.55
2022-10-18T13:11:50.576Z,2.67
2022-10-18T13:15:05.617Z,3.17
2022-10-18T13:17:41.620Z,2.50
2022-10-18T13:20:27.077Z,1.58
2022-10-18T13:23:05.545Z,2.50
2022-10-18T13:25:47.376Z,3.60
2022-10-18T13:28:26.563Z,2.28
2022-10-18T13:31:02.188Z,2.17
2022-10-18T13:33:35.702Z,2.47
2022-10-18T13:36:05.748Z,3.35
2022-10-18T13:38:47.061Z,2.20
2022-10-18T13:41:17.988Z,2.13
2022-10-18T13:44:00.183Z,6.32
2022-10-18T13:47:01.152Z,4.45
2022-10-18T13:49:37.755Z,6.20
2022-10-18T13:52:20.085Z,2.53
2022-10-18T13:55:04.326Z,7.35
2022-10-18T13:57:46.353Z,4.03
2022-10-18T14:00:33.377Z,1.77
2022-10-18T14:03:56.368Z,2.33
2022-10-18T14:06:29.283Z,3.50
2022-10-18T14:09:09.421Z,2.35
2022-10-18T14:11:51.524Z,2.25
2022-10-18T14:14:29.886Z,4.05
2022-10-18T14:17:04.536Z,1.67
2022-10-18T14:19:37.856Z,5.70
2022-10-18T14:22:14.698Z,2.40
2022-10-18T14:24:47.823Z,4.53
2022-10-18T14:27:20.753Z,5.72
2022-10-18T14:29:50.024Z,4.63
2022-10-18T14:32:27.650Z,3.95
2022-10-18T14:35:27.217Z,3.58
2022-10-18T14:37:48.044Z,4.10
2022-10-18T14:40:42.792Z,2.22
2022-10-18T14:43:14.328Z,3.80
2022-10-18T14:45:43.404Z,6.13
2022-10-18T14:48:16.865Z,5.00
2022-10-18T14:50:48.203Z,4.72
2022-10-18T14:53:21.963Z,6.60
2022-10-18T14:55:57.343Z,3.17
2022-10-18T14:58:25.355Z,2.95
2022-10-18T15:00:54.214Z,5.70
2022-10-18T15:03:22.560Z,4.05
2022-10-18T15:05:56.085Z,4.55
2022-10-18T15:08:27.853Z,4.80
2022-10-18T15:10:56.391Z,3.85
2022-10-18T15:13:25.264Z,7.22
2022-10-18T15:15:54.114Z,7.20
2022-10-18T15:18:24.129Z,6.70
2022-10-18T15:21:10.950Z,5.90
2022-10-18T15:23:40.303Z,13.40
2022-10-18T15:26:13.075Z,6.13
2022-10-18T15:28:49.816Z,4.82
2022-10-18T15:31:28.911Z,7.13
2022-10-18T15:34:10.048Z,5.15
2022-10-18T15:36:38.763Z,7.88
2022-10-18T15:39:20.571Z,6.70
2022-10-18T15:41:50.927Z,5.05
2022-10-18T15:44:25.176Z,3.72
2022-10-18T15:46:55.340Z,4.65
2022-10-18T15:49:52.151Z,3.65
2022-10-18T15:52:39.655Z,4.50
2022-10-18T15:55:56.408Z,4.07
2022-10-18T15:58:28.211Z,4.32
2022-10-18T16:01:00.400Z,2.13
2022-10-18T16:03:29.408Z,4.63
2022-10-18T16:06:04.013Z,5.32
2022-10-18T16:08:33.232Z,5.28
2022-10-18T16:11:01.601Z,5.38
2022-10-18T16:13:30.870Z,5.43
2022-10-18T16:16:00.352Z,5.20
2022-10-18T16:18:29.111Z,9.40
2022-10-18T16:20:56.969Z,4.40
2022-10-18T16:23:26.580Z,4.45
2022-10-18T16:25:54.853Z,7.65
2022-10-18T16:28:24.657Z,6.20
2022-10-18T16:30:57.789Z,4.20
2022-10-18T16:33:26.073Z,3.67
2022-10-18T16:35:54.957Z,5.95
2022-10-18T16:38:34.184Z,9.05
2022-10-18T16:41:04.470Z,4.20
2022-10-18T16:43:32.865Z,6.03
2022-10-18T16:46:02.547Z,3.95
2022-10-18T16:48:30.627Z,4.35
2022-10-18T16:50:59.338Z,6.07
2022-10-18T16:53:28.084Z,6.35
2022-10-18T16:55:58.328Z,5.55
2022-10-18T16:58:27.585Z,4.88
2022-10-18T17:00:55.932Z,6.13
2022-10-18T17:03:26.457Z,5.65
2022-10-18T17:05:56.354Z,6.82
2022-10-18T17:08:28.429Z,10.75
2022-10-18T17:10:57.786Z,5.22
2022-10-18T17:13:27.063Z,6.03
2022-10-18T17:15:55.030Z,5.93
2022-10-18T17:18:27.530Z,4.15
2022-10-18T17:20:56.513Z,4.45
2022-10-18T17:23:24.437Z,3.20
2022-10-18T17:26:05.112Z,4.95
2022-10-18T17:28:35.571Z,6.40
2022-10-18T17:31:03.770Z,4.28
2022-10-18T17:33:32.946Z,10.02
2022-10-18T17:36:01.249Z,5.78
2022-10-18T17:38:29.294Z,3.78
2022-10-18T17:40:57.502Z,4.00
2022-10-18T17:43:25.660Z,5.57
2022-10-18T17:45:56.396Z,5.57
2022-10-18T17:48:24.947Z,5.75
2022-10-18T17:50:54.075Z,9.00
2022-10-18T17:53:25.972Z,6.63
2022-10-18T17:56:02.433Z,3.85
2022-10-18T17:58:31.282Z,17.60
2022-10-18T18:00:59.674Z,19.70
2022-10-18T18:03:27.984Z,13.57
2022-10-18T18:05:57.522Z,21.83
2022-10-18T18:08:25.877Z,25.60
2022-10-18T18:10:55.435Z,16.77
2022-10-18T18:13:23.642Z,12.43
2022-10-18T18:15:51.782Z,14.85
2022-10-18T18:18:19.904Z,14.98
2022-10-18T18:20:54.544Z,14.85
2022-10-18T18:23:24.671Z,9.45
2022-10-18T18:25:57.046Z,10.27
2022-10-18T18:28:25.400Z,6.70
2022-10-18T18:30:53.704Z,8.85
2022-10-18T18:33:21.851Z,9.35
2022-10-18T18:35:56.248Z,5.50
2022-10-18T18:38:25.842Z,7.40
2022-10-18T18:41:04.775Z,5.30
2022-10-18T18:43:32.914Z,7.20
2022-10-18T18:46:01.103Z,7.23
2022-10-18T18:48:29.492Z,8.83
2022-10-18T18:50:57.659Z,4.77
2022-10-18T18:53:29.379Z,3.30
2022-10-18T18:56:03.408Z,6.33
2022-10-18T18:58:31.442Z,8.13
2022-10-18T19:00:59.848Z,4.80
2022-10-18T19:03:28.027Z,3.63
2022-10-18T19:06:03.831Z,5.13
2022-10-18T19:08:33.295Z,4.20
2022-10-18T19:11:01.403Z,6.97
2022-10-18T19:13:29.574Z,17.37
2022-10-18T19:16:21.342Z,10.13
2022-10-18T19:18:54.136Z,5.13
2022-10-18T19:21:22.573Z,6.23
2022-10-18T19:23:52.045Z,3.60
2022-10-18T19:26:26.608Z,3.60
2022-10-18T19:28:54.954Z,4.03
2022-10-18T19:31:23.476Z,4.10
2022-10-18T19:33:59.214Z,11.30
2022-10-18T19:36:28.198Z,7.13
2022-10-18T19:38:57.648Z,3.37
2022-10-18T19:43:59.396Z,2.90
2022-10-18T19:46:28.168Z,3.60
2022-10-18T19:48:56.116Z,6.50
2022-10-18T19:51:27.969Z,1.80
2022-10-18T19:53:58.325Z,3.53
2022-10-18T19:56:27.401Z,3.57
2022-10-18T19:58:55.874Z,3.40
2022-10-18T20:01:24.266Z,5.70
2022-10-18T20:03:52.535Z,4.70
2022-10-18T20:06:20.949Z,4.00
2022-10-18T20:08:49.231Z,4.53
2022-10-18T20:11:20.709Z,4.67
2022-10-18T20:13:49.086Z,3.17
2022-10-18T20:16:27.725Z,2.53
2022-10-18T20:18:57.607Z,3.00
2022-10-18T20:21:26.682Z,2.70
2022-10-18T20:23:55.838Z,7.57
2022-10-18T20:26:25.325Z,3.33
2022-10-18T20:28:56.707Z,4.80
2022-10-18T20:31:26.840Z,5.10
2022-10-18T20:33:56.190Z,9.93
2022-10-18T20:36:24.241Z,3.90
2022-10-18T20:38:54.371Z,4.27
2022-10-18T20:41:25.677Z,6.70
2022-10-18T20:43:54.267Z,5.27
2022-10-18T20:46:23.476Z,8.40
2022-10-18T20:48:52.180Z,5.27
2022-10-18T20:51:20.532Z,7.43
2022-10-18T20:53:48.436Z,7.53
2022-10-18T20:56:20.326Z,6.40
2022-10-18T20:59:33.391Z,4.83
2022-10-18T21:02:26.234Z,3.70
2022-10-18T21:05:32.308Z,5.30
2022-10-18T21:08:06.724Z,4.27
2022-10-18T21:10:34.700Z,3.53
2022-10-18T21:13:02.802Z,4.23
2022-10-18T21:15:32.761Z,3.77
2022-10-18T21:18:00.587Z,3.20
2022-10-18T21:20:31.545Z,5.67
2022-10-18T21:22:59.527Z,5.80
2022-10-18T21:25:27.510Z,5.60
2022-10-18T21:27:55.515Z,4.70
2022-10-18T21:30:23.936Z,4.07
2022-10-18T21:32:53.199Z,4.70
2022-10-18T21:35:23.843Z,5.33
2022-10-18T21:37:51.794Z,4.70
2022-10-18T21:40:19.655Z,8.37
2022-10-18T21:42:47.483Z,9.60
2022-10-18T21:45:15.416Z,6.40
2022-10-18T21:47:43.280Z,4.17
2022-10-18T21:50:12.679Z,5.53
2022-10-18T21:52:40.467Z,3.87
2022-10-18T21:55:08.930Z,3.80
2022-10-18T21:57:37.288Z,4.43
2022-10-18T22:00:07.068Z,4.53
2022-10-18T22:02:35.470Z,5.97
2022-10-18T22:05:06.043Z,8.87
2022-10-18T22:07:37.710Z,7.10
2022-10-18T22:10:06.008Z,6.43
2022-10-18T22:12:33.871Z,6.03
2022-10-18T22:15:02.600Z,4.17
2022-10-18T22:17:30.413Z,7.70
2022-10-18T22:19:58.305Z,7.47
2022-10-18T22:22:26.447Z,4.20
2022-10-18T22:24:56.054Z,5.60
2022-10-18T22:27:23.886Z,5.63
2022-10-18T22:29:52.027Z,8.90
2022-10-18T22:32:19.862Z,6.50
2022-10-18T22:34:47.747Z,8.27
2022-10-18T22:37:15.675Z,5.30
2022-10-18T22:39:43.623Z,7.30
2022-10-18T22:42:12.760Z,8.30
2022-10-18T22:44:40.608Z,9.00
2022-10-18T22:47:08.536Z,5.67
2022-10-18T22:49:36.543Z,9.77
2022-10-18T22:52:04.430Z,10.80
2022-10-18T22:54:32.262Z,14.23
2022-10-18T22:57:00.121Z,40.10
2022-10-18T22:59:29.302Z,22.63
2022-10-18T23:01:57.083Z,22.97
2022-10-18T23:04:25.109Z,32.33
2022-10-18T23:06:52.951Z,47.37
2022-10-18T23:09:20.863Z,20.63
2022-10-18T23:11:50.835Z,11.83
2022-10-18T23:14:18.821Z,10.03
2022-10-18T23:16:48.159Z,6.73
2022-10-18T23:19:17.134Z,9.30
2022-10-18T23:21:45.013Z,7.73
2022-10-18T23:24:12.963Z,26.27
2022-10-18T23:26:40.766Z,11.23
2022-10-18T23:29:09.903Z,8.50
2022-10-18T23:31:37.812Z,6.23
2022-10-18T23:34:07.427Z,15.17
2022-10-18T23:36:35.377Z,14.83
2022-10-18T23:39:04.299Z,22.70
2022-10-18T23:41:32.191Z,67.20
2022-10-18T23:44:00.039Z,38.00
2022-10-18T23:46:27.899Z,20.20
2022-10-18T23:48:55.768Z,9.97
2022-10-18T23:51:25.163Z,20.23
2022-10-18T23:53:52.940Z,19.23
2022-10-18T23:56:20.811Z,9.43
2022-10-18T23:58:48.643Z,26.13
